createdAt,value
2018-06-01T00:00:37.364Z,207.60
2018-06-01T00:01:36.947Z,205.90
2018-06-01T00:02:36.925Z,201.10
2018-06-01T00:03:37.793Z,203.60
2018-06-01T00:04:38.237Z,218.40
2018-06-01T00:05:36.671Z,211.30
2018-06-01T00:06:37.892Z,222.80
2018-06-01T00:07:37.489Z,253.20
2018-06-01T00:08:58.671Z,236.90
2018-06-01T00:09:59.242Z,224.40
2018-06-01T00:10:59.155Z,228.80
2018-06-01T00:11:58.872Z,215.90
2018-06-01T00:12:58.806Z,237.40
2018-06-01T00:13:58.675Z,215.00
2018-06-01T00:14:59.594Z,219.80
2018-06-01T00:15:58.301Z,235.00
2018-06-01T00:16:59.240Z,223.00
2018-06-01T00:17:58.871Z,208.00
2018-06-01T00:18:58.512Z,197.40
2018-06-01T00:19:59.070Z,199.60
2018-06-01T00:21:42.235Z,200.00
2018-06-01T00:22:42.934Z,194.30
2018-06-01T00:23:42.799Z,209.50
2018-06-01T00:25:04.467Z,211.70
2018-06-01T00:26:05.219Z,214.20
2018-06-01T00:27:04.819Z,225.70
2018-06-01T00:28:05.131Z,226.90
2018-06-01T00:29:04.652Z,210.40
2018-06-01T00:30:04.320Z,200.60
2018-06-01T00:31:27.815Z,215.80
2018-06-01T00:32:27.767Z,200.30
2018-06-01T00:33:28.373Z,189.60
2018-06-01T00:34:28.397Z,199.60
2018-06-01T00:35:28.074Z,221.70
2018-06-01T00:36:27.511Z,183.10
2018-06-01T00:37:28.952Z,193.70
2018-06-01T00:38:27.590Z,195.50
2018-06-01T00:39:28.172Z,187.70
2018-06-01T00:40:27.969Z,198.60
2018-06-01T00:41:27.421Z,196.90
2018-06-01T00:42:28.086Z,175.20
2018-06-01T00:43:27.808Z,174.60
2018-06-01T00:44:27.505Z,179.70
2018-06-01T00:45:28.162Z,191.40
2018-06-01T00:46:27.611Z,175.80
2018-06-01T00:47:28.173Z,144.60
2018-06-01T00:48:27.965Z,163.30
2018-06-01T00:49:27.905Z,155.70
2018-06-01T00:50:27.431Z,155.10
2018-06-01T00:51:28.326Z,179.20
2018-06-01T00:52:28.211Z,203.90
2018-06-01T00:53:27.892Z,185.60
2018-06-01T00:54:27.918Z,176.70
2018-06-01T00:55:27.871Z,178.80
2018-06-01T00:56:49.299Z,168.90
2018-06-01T00:57:50.164Z,160.00
2018-06-01T00:59:11.749Z,181.50
2018-06-01T01:00:12.578Z,156.80
2018-06-01T01:01:12.381Z,187.20
2018-06-01T01:02:12.151Z,209.00
2018-06-01T01:03:12.572Z,185.30
2018-06-01T01:04:13.763Z,188.20
2018-06-01T01:05:13.715Z,204.60
2018-06-01T01:06:12.215Z,190.60
2018-06-01T01:07:11.944Z,205.80
2018-06-01T01:08:12.258Z,203.90
2018-06-01T01:09:11.999Z,178.50
2018-06-01T01:10:11.991Z,206.70
2018-06-01T01:11:12.462Z,199.60
2018-06-01T01:12:11.884Z,219.50
2018-06-01T01:13:11.814Z,216.70
2018-06-01T01:14:11.533Z,205.60
2018-06-01T01:15:13.575Z,222.60
2018-06-01T01:16:12.021Z,211.10
2018-06-01T01:17:11.983Z,197.90
2018-06-01T01:18:33.562Z,193.80
2018-06-01T01:19:56.116Z,205.50
2018-06-01T01:20:57.022Z,227.30
2018-06-01T01:21:56.934Z,211.40
2018-06-01T01:22:56.675Z,201.70
2018-06-01T01:23:56.528Z,192.70
2018-06-01T01:24:55.966Z,189.30
2018-06-01T01:25:56.761Z,194.40
2018-06-01T01:26:56.614Z,200.90
2018-06-01T01:27:56.499Z,178.90
2018-06-01T01:28:55.981Z,194.10
2018-06-01T01:29:56.683Z,204.90
2018-06-01T01:30:56.338Z,195.70
2018-06-01T01:31:56.012Z,221.00
2018-06-01T01:32:57.127Z,224.60
2018-06-01T01:33:57.188Z,190.50
2018-06-01T01:34:56.808Z,164.00
2018-06-01T01:35:56.297Z,194.10
2018-06-01T01:36:56.678Z,171.80
2018-06-01T01:37:56.036Z,189.80
2018-06-01T01:38:56.792Z,165.80
2018-06-01T01:39:56.671Z,147.00
2018-06-01T01:40:56.218Z,174.40
2018-06-01T01:41:56.233Z,170.50
2018-06-01T01:42:56.052Z,178.10
2018-06-01T01:43:56.690Z,201.20
2018-06-01T01:44:56.469Z,204.90
2018-06-01T01:45:56.454Z,205.30
2018-06-01T01:46:55.882Z,197.50
2018-06-01T01:47:56.879Z,212.50
2018-06-01T01:48:56.479Z,185.70
2018-06-01T01:49:56.051Z,226.80
2018-06-01T01:50:56.793Z,240.70
2018-06-01T01:51:56.833Z,235.90
2018-06-01T01:52:56.773Z,206.70
2018-06-01T01:53:56.745Z,243.60
2018-06-01T01:54:56.475Z,208.60
2018-06-01T01:55:56.456Z,229.20
2018-06-01T01:56:56.937Z,243.80
2018-06-01T01:57:56.410Z,226.50
2018-06-01T01:58:56.065Z,215.90
2018-06-01T01:59:56.782Z,237.40
2018-06-01T02:00:56.451Z,236.60
2018-06-01T02:01:56.458Z,229.00
2018-06-01T02:02:56.221Z,228.20
2018-06-01T02:03:57.018Z,226.20
2018-06-01T02:04:56.819Z,225.70
2018-06-01T02:06:18.256Z,250.30
2018-06-01T02:07:19.228Z,240.50
2018-06-01T02:08:19.189Z,224.30
2018-06-01T02:09:18.807Z,230.70
2018-06-01T02:10:18.557Z,212.40
2018-06-01T02:11:18.856Z,229.70
2018-06-01T02:12:18.881Z,226.70
2018-06-01T02:13:18.335Z,227.90
2018-06-01T02:15:03.284Z,212.50
2018-06-01T02:16:03.332Z,232.10
2018-06-01T02:17:02.896Z,247.10
2018-06-01T02:18:03.653Z,255.90
2018-06-01T02:19:03.230Z,246.50
2018-06-01T02:20:04.055Z,236.60
2018-06-01T02:21:25.429Z,270.20
2018-06-01T02:22:26.277Z,298.60
2018-06-01T02:23:26.125Z,308.60
2018-06-01T02:24:25.889Z,314.90
2018-06-01T02:25:25.656Z,319.10
2018-06-01T02:26:25.356Z,333.70
2018-06-01T02:27:26.288Z,327.40
2018-06-01T02:28:26.231Z,320.50
2018-06-01T02:29:26.027Z,313.60
2018-06-01T02:30:25.826Z,301.70
2018-06-01T02:31:25.561Z,285.10
2018-06-01T02:32:25.342Z,273.90
2018-06-01T03:53:38.100Z,229.50
2018-06-01T03:54:38.914Z,231.90
2018-06-01T03:55:38.665Z,238.90
2018-06-01T03:57:01.529Z,216.50
2018-06-01T03:58:01.675Z,222.20
2018-06-01T03:59:01.495Z,230.60
2018-06-01T04:00:01.593Z,204.40
2018-06-01T04:01:01.622Z,209.40
2018-06-01T04:02:01.492Z,206.20
2018-06-01T04:03:01.694Z,207.40
2018-06-01T04:04:01.287Z,199.40
2018-06-01T04:05:01.488Z,195.80
2018-06-01T04:06:01.331Z,182.80
2018-06-01T04:07:02.417Z,193.70
2018-06-01T04:08:01.571Z,186.70
2018-06-01T04:09:01.465Z,187.60
2018-06-01T04:10:14.757Z,194.70
2018-06-01T04:11:02.065Z,195.40
2018-06-01T04:12:01.663Z,204.50
2018-06-01T04:13:01.303Z,200.50
2018-06-01T04:14:02.082Z,195.30
2018-06-01T04:15:02.375Z,182.80
2018-06-01T04:16:01.259Z,180.70
2018-06-01T04:17:02.350Z,178.30
2018-06-01T04:18:02.211Z,176.20
2018-06-01T04:19:02.253Z,183.90
2018-06-01T04:20:02.200Z,168.30
2018-06-01T04:21:02.098Z,164.20
2018-06-01T04:22:02.207Z,155.20
2018-06-01T04:23:02.211Z,156.00
2018-06-01T04:24:02.362Z,159.00
2018-06-01T04:25:02.206Z,146.60
2018-06-01T04:26:02.204Z,146.70
2018-06-01T04:27:02.467Z,157.60
2018-06-01T04:28:01.374Z,150.60
2018-06-01T04:29:23.215Z,151.60
2018-06-01T04:30:23.167Z,138.00
2018-06-01T04:31:24.179Z,131.40
2018-06-01T04:32:22.957Z,122.00
2018-06-01T04:33:23.737Z,121.10
2018-06-01T04:34:23.694Z,128.00
2018-06-01T04:35:23.594Z,114.90
2018-06-01T04:36:23.667Z,119.20
2018-06-01T04:37:23.713Z,114.30
2018-06-01T04:38:23.781Z,106.30
2018-06-01T04:39:23.997Z,105.00
2018-06-01T04:40:24.217Z,116.40
2018-06-01T04:41:23.265Z,105.50
2018-06-01T04:42:24.459Z,117.10
2018-06-01T04:43:23.445Z,114.90
2018-06-01T04:44:23.549Z,117.70
2018-06-01T04:45:23.556Z,113.80
2018-06-01T04:46:23.742Z,111.10
2018-06-01T04:47:23.916Z,117.90
2018-06-01T04:48:23.891Z,108.70
2018-06-01T04:49:23.891Z,116.10
2018-06-01T04:50:24.769Z,103.90
2018-06-01T04:51:24.015Z,106.60
2018-06-01T04:52:24.189Z,102.10
2018-06-01T04:53:24.199Z,95.30
2018-06-01T04:54:23.729Z,109.10
2018-06-01T04:55:24.485Z,100.30
2018-06-01T04:56:23.708Z,91.40
2018-06-01T04:57:28.198Z,91.00
2018-06-01T04:58:23.464Z,82.20
2018-06-01T04:59:24.232Z,81.80
2018-06-01T05:00:23.417Z,78.50
2018-06-01T05:01:24.527Z,82.20
2018-06-01T05:02:24.126Z,78.30
2018-06-01T05:03:26.658Z,82.90
2018-06-01T05:04:26.016Z,81.80
2018-06-01T05:05:23.486Z,73.60
2018-06-01T05:06:23.456Z,75.00
2018-06-01T05:07:23.460Z,73.20
2018-06-01T05:08:24.395Z,71.80
2018-06-01T05:09:23.734Z,74.20
2018-06-01T05:10:25.530Z,78.30
2018-06-01T05:11:57.045Z,73.70
2018-06-01T05:12:58.352Z,83.00
2018-06-01T05:13:58.005Z,81.90
2018-06-01T05:14:58.129Z,80.70
2018-06-01T05:15:57.421Z,75.00
2018-06-01T05:16:57.304Z,71.00
2018-06-01T05:17:57.881Z,67.40
2018-06-01T05:18:57.885Z,61.80
2018-06-01T05:19:57.748Z,63.10
2018-06-01T05:20:57.525Z,71.20
2018-06-01T05:21:57.541Z,72.40
2018-06-01T05:22:57.602Z,73.20
2018-06-01T05:23:57.571Z,66.40
2018-06-01T05:24:57.447Z,72.70
2018-06-01T05:25:57.781Z,69.50
2018-06-01T05:26:57.693Z,57.40
2018-06-01T05:27:58.638Z,62.30
2018-06-01T05:28:59.208Z,64.40
2018-06-01T05:30:20.415Z,62.60
2018-06-01T05:31:25.337Z,60.30
2018-06-01T05:32:20.410Z,63.70
2018-06-01T05:33:20.724Z,65.10
2018-06-01T05:34:21.032Z,59.30
2018-06-01T05:35:20.770Z,61.80
2018-06-01T05:36:43.023Z,62.90
2018-06-01T05:37:43.124Z,62.60
2018-06-01T05:38:42.923Z,63.70
2018-06-01T05:39:42.643Z,72.40
2018-06-01T05:40:42.566Z,73.60
2018-06-01T05:41:43.278Z,76.10
2018-06-01T05:43:26.975Z,72.60
2018-06-01T05:44:27.910Z,67.80
2018-06-01T05:45:27.102Z,70.50
2018-06-01T05:46:26.946Z,66.80
2018-06-01T05:47:26.863Z,64.00
2018-06-01T05:48:29.004Z,68.90
2018-06-01T05:49:27.901Z,75.30
2018-06-01T05:50:27.236Z,70.60
2018-06-01T05:51:27.314Z,76.40
2018-06-01T05:52:26.397Z,73.40
2018-06-01T05:53:26.736Z,65.80
2018-06-01T05:54:49.150Z,63.30
2018-06-01T05:56:02.220Z,60.50
2018-06-01T05:57:25.946Z,57.10
2018-06-01T05:58:26.330Z,66.90
2018-06-01T05:59:26.567Z,60.00
2018-06-01T06:00:26.757Z,61.00
2018-06-01T06:01:26.438Z,53.60
2018-06-01T06:02:26.676Z,57.90
2018-06-01T06:03:26.740Z,51.30
2018-06-01T06:04:25.976Z,50.70
2018-06-01T06:05:25.807Z,51.20
2018-06-01T06:06:25.777Z,48.60
2018-06-01T06:07:26.667Z,43.60
2018-06-01T06:08:26.711Z,47.10
2018-06-01T06:09:25.714Z,43.30
2018-06-01T06:10:26.406Z,48.70
2018-06-01T06:11:26.058Z,44.10
2018-06-01T06:12:26.152Z,45.90
2018-06-01T06:13:26.230Z,44.30
2018-06-01T06:14:28.687Z,44.70
2018-06-01T06:15:26.608Z,50.40
2018-06-01T06:16:47.812Z,48.20
2018-06-01T06:17:48.504Z,42.50
2018-06-01T06:18:48.339Z,42.30
2018-06-01T06:19:48.330Z,44.10
2018-06-01T06:20:48.930Z,43.20
2018-06-01T06:21:47.737Z,42.10
2018-06-01T06:22:48.774Z,45.60
2018-06-01T06:23:48.563Z,40.80
2018-06-01T06:24:49.225Z,39.00
2018-06-01T06:26:31.379Z,46.40
2018-06-01T06:27:31.276Z,42.10
2018-06-01T06:28:32.298Z,41.00
2018-06-01T06:29:53.032Z,40.90
2018-06-01T06:30:55.328Z,40.20
2018-06-01T06:31:53.504Z,44.40
2018-06-01T06:32:53.175Z,48.70
2018-06-01T06:33:53.854Z,48.60
2018-06-01T06:35:18.620Z,48.10
2018-06-01T06:36:40.304Z,46.80
2018-06-01T06:37:41.399Z,44.10
2018-06-01T06:38:40.456Z,51.50
2018-06-01T06:39:40.816Z,45.00
2018-06-01T06:40:41.450Z,43.00
2018-06-01T06:42:04.261Z,45.70
2018-06-01T06:43:25.823Z,43.60
2018-06-01T06:44:26.678Z,45.90
2018-06-01T06:45:26.714Z,47.20
2018-06-01T06:46:26.078Z,46.70
2018-06-01T06:47:48.277Z,48.20
2018-06-01T06:48:47.996Z,46.00
2018-06-01T06:50:11.226Z,50.10
2018-06-01T06:51:11.006Z,50.00
2018-06-01T06:52:33.798Z,48.70
2018-06-01T06:54:16.173Z,48.50
2018-06-01T06:55:16.754Z,44.70
2018-06-01T06:56:40.356Z,44.60
2018-06-01T06:57:41.017Z,44.10
2018-06-01T06:58:41.239Z,43.60
2018-06-01T06:59:41.265Z,43.90
2018-06-01T07:00:40.331Z,43.00
2018-06-01T07:01:41.158Z,40.50
2018-06-01T07:02:40.765Z,43.50
2018-06-01T07:03:41.115Z,42.50
2018-06-01T07:04:41.057Z,46.40
2018-06-01T07:05:41.491Z,43.10
2018-06-01T07:06:41.152Z,50.90
2018-06-01T07:07:41.153Z,48.20
2018-06-01T07:08:39.974Z,43.10
2018-06-01T07:10:02.296Z,47.50
2018-06-01T07:11:03.203Z,51.20
2018-06-01T07:12:02.950Z,48.60
2018-06-01T07:13:04.256Z,46.60
2018-06-01T07:14:02.930Z,45.10
2018-06-01T07:15:04.334Z,46.40
2018-06-01T07:16:03.498Z,44.80
2018-06-01T07:17:04.680Z,43.60
2018-06-01T07:18:03.320Z,41.80
2018-06-01T07:19:31.407Z,43.20
2018-06-01T07:20:49.110Z,43.50
2018-06-01T07:22:11.602Z,44.40
2018-06-01T07:23:15.497Z,44.60
2018-06-01T07:24:34.422Z,45.80
2018-06-01T07:25:35.348Z,45.20
2018-06-01T07:26:34.721Z,44.20
2018-06-01T07:27:35.655Z,44.30
2018-06-01T07:28:57.101Z,42.90
2018-06-01T07:29:58.177Z,49.70
2018-06-01T07:30:57.345Z,42.50
2018-06-01T07:31:57.707Z,41.80
2018-06-01T07:32:58.083Z,43.40
2018-06-01T07:33:58.565Z,43.30
2018-06-01T07:34:57.563Z,43.00
2018-06-01T07:35:57.512Z,41.00
2018-06-01T07:36:57.399Z,45.50
2018-06-01T07:37:58.397Z,40.20
2018-06-01T07:38:57.371Z,41.50
2018-06-01T07:39:57.282Z,41.70
2018-06-01T07:40:57.516Z,47.60
2018-06-01T07:41:57.671Z,38.30
2018-06-01T07:43:20.181Z,43.20
2018-06-01T07:44:20.179Z,40.40
2018-06-01T07:45:20.957Z,41.60
2018-06-01T07:46:19.716Z,39.20
2018-06-01T07:47:19.578Z,39.50
2018-06-01T07:48:40.665Z,38.20
2018-06-01T07:49:42.166Z,40.20
2018-06-01T07:50:41.229Z,38.10
2018-06-01T07:51:41.523Z,38.90
2018-06-01T07:52:41.372Z,38.50
2018-06-01T07:54:02.752Z,37.30
2018-06-01T07:55:03.867Z,38.30
2018-06-01T07:56:03.637Z,36.90
2018-06-01T07:57:03.701Z,41.00
2018-06-01T07:58:27.475Z,42.50
2018-06-01T07:59:27.449Z,40.00
2018-06-01T08:00:27.976Z,41.40
2018-06-01T08:02:14.157Z,39.00
2018-06-01T08:03:15.223Z,41.00
2018-06-01T08:04:14.248Z,39.10
2018-06-01T08:05:14.469Z,36.80
2018-06-01T08:06:14.151Z,39.40
2018-06-01T08:07:15.082Z,39.20
2018-06-01T08:08:15.883Z,39.80
2018-06-01T08:09:15.450Z,38.20
2018-06-01T08:10:14.506Z,36.20
2018-06-01T08:11:36.125Z,36.80
2018-06-01T08:12:36.373Z,38.20
2018-06-01T08:13:36.373Z,37.50
2018-06-01T08:14:36.353Z,39.20
2018-06-01T08:15:36.461Z,40.90
2018-06-01T08:16:36.776Z,38.90
2018-06-01T08:17:37.000Z,37.20
2018-06-01T08:18:58.169Z,36.90
2018-06-01T08:19:58.269Z,37.80
2018-06-01T08:20:58.427Z,36.60
2018-06-01T08:21:58.725Z,36.00
2018-06-01T08:22:58.694Z,35.00
2018-06-01T08:23:58.662Z,34.50
2018-06-01T08:24:58.337Z,36.20
2018-06-01T08:25:58.165Z,37.50
2018-06-01T08:26:58.536Z,41.20
2018-06-01T08:27:58.518Z,42.00
2018-06-01T08:28:58.437Z,51.40
2018-06-01T08:29:58.619Z,42.30
2018-06-01T08:30:58.751Z,43.20
2018-06-01T08:31:58.732Z,45.10
2018-06-01T08:32:58.843Z,50.10
2018-06-01T08:33:57.918Z,47.30
2018-06-01T08:34:58.637Z,46.40
2018-06-01T08:35:58.329Z,44.00
2018-06-01T08:36:59.338Z,41.60
2018-06-01T08:37:58.305Z,45.80
2018-06-01T08:38:58.332Z,42.20
2018-06-01T08:39:58.127Z,42.10
2018-06-01T08:41:21.645Z,46.20
2018-06-01T08:42:23.345Z,44.10
2018-06-01T08:43:22.328Z,42.00
2018-06-01T08:44:44.118Z,38.30
2018-06-01T08:46:05.806Z,36.00
2018-06-01T08:47:06.823Z,37.10
2018-06-01T08:48:05.907Z,36.80
2018-06-01T08:49:06.316Z,38.30
2018-06-01T08:50:06.029Z,39.10
2018-06-01T08:51:05.896Z,38.30
2018-06-01T08:52:28.404Z,39.50
2018-06-01T08:53:29.257Z,43.50
2018-06-01T08:54:51.370Z,43.60
2018-06-01T08:55:52.449Z,40.90
2018-06-01T08:56:52.518Z,43.00
2018-06-01T08:57:51.426Z,44.90
2018-06-01T08:59:14.034Z,42.00
2018-06-01T09:00:15.135Z,43.10
2018-06-01T09:01:15.101Z,42.70
2018-06-01T09:02:14.143Z,43.40
2018-06-01T09:03:14.893Z,42.20
2018-06-01T09:04:14.894Z,41.40
2018-06-01T09:05:14.709Z,44.10
2018-06-01T09:06:36.557Z,44.50
2018-06-01T09:07:57.971Z,43.00
2018-06-01T09:08:59.585Z,42.80
2018-06-01T09:09:58.348Z,42.50
2018-06-01T09:10:58.355Z,43.20
2018-06-01T09:11:58.374Z,42.50
2018-06-01T09:12:58.660Z,41.90
2018-06-01T09:13:58.937Z,42.40
2018-06-01T09:15:00.172Z,42.10
2018-06-01T09:15:58.081Z,41.50
2018-06-01T09:16:57.921Z,42.10
2018-06-01T09:17:59.876Z,43.80
2018-06-01T09:19:01.065Z,42.20
2018-06-01T09:20:44.176Z,41.30
2018-06-01T09:21:45.432Z,39.70
2018-06-01T09:22:44.294Z,41.50
2018-06-01T09:24:06.022Z,44.40
2018-06-01T09:25:06.975Z,42.80
2018-06-01T09:26:06.027Z,43.00
2018-06-01T09:27:05.861Z,44.80
2018-06-01T09:28:07.156Z,43.80
2018-06-01T09:29:06.294Z,43.30
2018-06-01T09:30:06.493Z,49.50
2018-06-01T09:31:07.094Z,43.80
2018-06-01T09:32:05.999Z,43.60
2018-06-01T09:33:30.172Z,43.30
2018-06-01T09:34:31.094Z,43.90
2018-06-01T09:35:30.995Z,43.40
2018-06-01T09:36:31.601Z,44.30
2018-06-01T09:37:30.659Z,41.90
2018-06-01T09:38:30.413Z,42.10
2018-06-01T09:39:30.557Z,39.60
2018-06-01T09:40:30.309Z,40.20
2018-06-01T09:41:31.269Z,41.00
2018-06-01T09:42:52.711Z,42.80
2018-06-01T09:43:53.747Z,40.90
2018-06-01T09:45:15.373Z,39.80
2018-06-01T09:46:16.429Z,39.50
2018-06-01T09:47:38.110Z,42.40
2018-06-01T09:48:39.109Z,40.20
2018-06-01T09:50:02.733Z,40.40
2018-06-01T09:51:27.552Z,39.00
2018-06-01T09:52:27.703Z,38.80
2018-06-01T09:53:27.451Z,37.30
2018-06-01T09:54:27.765Z,41.20
2018-06-01T09:55:28.146Z,37.30
2018-06-01T09:56:27.380Z,35.80
2018-06-01T09:57:51.421Z,35.00
2018-06-01T09:59:14.586Z,36.10
2018-06-01T10:00:14.411Z,36.40
2018-06-01T10:01:15.438Z,38.30
2018-06-01T10:02:37.627Z,36.70
2018-06-01T10:03:37.542Z,36.70
2018-06-01T10:05:44.539Z,34.90
2018-06-01T10:06:45.662Z,35.40
2018-06-01T10:07:44.759Z,39.20
2018-06-01T10:08:45.959Z,35.20
2018-06-01T10:09:45.013Z,34.10
2018-06-01T10:10:45.017Z,32.30
2018-06-01T10:11:45.104Z,34.20
2018-06-01T10:12:56.019Z,34.00
2018-06-01T10:13:45.036Z,32.90
2018-06-01T10:14:45.227Z,30.90
2018-06-01T10:15:45.370Z,31.40
2018-06-01T10:16:45.392Z,33.40
2018-06-01T10:18:29.143Z,32.90
2018-06-01T10:19:29.119Z,35.30
2018-06-01T10:20:30.355Z,32.10
2018-06-01T10:21:30.124Z,32.30
2018-06-01T10:22:29.598Z,32.40
2018-06-01T10:23:30.083Z,31.40
2018-06-01T10:24:29.731Z,32.10
2018-06-01T10:25:29.865Z,32.90
2018-06-01T10:26:29.716Z,31.90
2018-06-01T10:27:29.464Z,31.40
2018-06-01T10:28:52.339Z,29.70
2018-06-01T10:29:51.901Z,30.70
2018-06-01T10:30:52.493Z,29.30
2018-06-01T10:31:52.030Z,28.70
2018-06-01T10:33:18.175Z,30.10
2018-06-01T10:34:20.672Z,28.70
2018-06-01T10:35:20.580Z,27.90
2018-06-01T10:36:17.512Z,28.70
2018-06-01T10:37:17.625Z,27.30
2018-06-01T10:38:18.787Z,26.80
2018-06-01T10:39:18.013Z,25.90
2018-06-01T10:40:16.933Z,25.60
2018-06-01T10:41:18.023Z,25.50
2018-06-01T10:42:17.044Z,26.80
2018-06-01T10:43:17.325Z,29.90
2018-06-01T10:44:17.563Z,28.50
2018-06-01T10:45:19.113Z,27.00
2018-06-01T10:46:17.161Z,27.10
2018-06-01T10:47:17.287Z,27.60
2018-06-01T10:48:19.534Z,29.80
2018-06-01T10:49:17.544Z,28.60
2018-06-01T10:50:18.664Z,30.50
2018-06-01T10:51:17.683Z,29.60
2018-06-01T10:52:17.934Z,29.10
2018-06-01T10:53:17.927Z,30.20
2018-06-01T10:54:19.345Z,31.80
2018-06-01T10:55:17.940Z,33.20
2018-06-01T10:57:04.020Z,33.40
2018-06-01T10:58:05.023Z,35.00
2018-06-01T10:59:04.617Z,32.50
2018-06-01T11:00:04.493Z,33.20
2018-06-01T11:01:04.846Z,33.30
2018-06-01T11:02:05.051Z,32.40
2018-06-01T11:03:27.971Z,31.80
2018-06-01T11:04:28.039Z,31.10
2018-06-01T11:05:28.660Z,29.70
2018-06-01T11:07:16.828Z,29.20
2018-06-01T11:08:18.615Z,30.50
2018-06-01T11:09:17.588Z,30.90
2018-06-01T11:10:17.666Z,30.40
2018-06-01T11:11:17.669Z,32.20
2018-06-01T11:12:17.555Z,31.20
2018-06-01T11:13:17.760Z,33.80
2018-06-01T11:14:17.738Z,34.80
2018-06-01T11:15:16.949Z,34.00
2018-06-01T11:16:17.056Z,33.60
2018-06-01T11:17:17.197Z,35.60
2018-06-01T11:18:17.998Z,35.00
2018-06-01T11:19:17.729Z,35.50
2018-06-01T11:20:16.943Z,36.10
2018-06-01T11:21:17.139Z,36.30
2018-06-01T11:22:17.406Z,34.60
2018-06-01T11:23:17.626Z,37.30
2018-06-01T11:24:19.240Z,35.40
2018-06-01T11:26:02.723Z,37.00
2018-06-01T11:27:03.654Z,38.10
2018-06-01T11:28:02.442Z,40.80
2018-06-01T11:29:03.507Z,41.50
2018-06-01T11:30:02.394Z,40.50
2018-06-01T11:31:03.211Z,40.50
2018-06-01T11:32:04.405Z,40.20
2018-06-01T11:33:05.328Z,41.50
2018-06-01T11:34:03.440Z,42.80
2018-06-01T11:35:03.359Z,42.40
2018-06-01T11:36:03.192Z,42.40
2018-06-01T11:37:02.933Z,42.60
2018-06-01T11:38:27.180Z,44.30
2018-06-01T11:39:27.332Z,42.10
2018-06-01T11:40:27.211Z,41.80
2018-06-01T11:41:27.039Z,44.00
2018-06-01T11:42:27.395Z,44.00
2018-06-01T11:43:49.156Z,41.60
2018-06-01T11:44:50.081Z,41.70
2018-06-01T11:45:49.845Z,44.00
2018-06-01T11:46:50.196Z,43.80
2018-06-01T11:47:50.068Z,46.80
2018-06-01T11:48:49.828Z,47.70
2018-06-01T11:49:49.642Z,48.10
2018-06-01T11:50:50.601Z,49.30
2018-06-01T11:52:11.774Z,54.90
2018-06-01T11:53:12.235Z,55.30
2018-06-01T11:54:12.335Z,58.00
2018-06-01T11:55:12.432Z,64.20
2018-06-01T11:56:35.642Z,69.90
2018-06-01T11:57:34.667Z,66.30
2018-06-01T11:58:58.937Z,71.90
2018-06-01T11:59:59.177Z,67.70
2018-06-01T12:01:00.085Z,77.90
2018-06-01T12:02:01.291Z,73.60
2018-06-01T12:03:00.379Z,78.80
2018-06-01T12:03:59.152Z,78.20
2018-06-01T12:04:59.088Z,78.40
2018-06-01T12:06:22.908Z,92.50
2018-06-01T12:07:23.903Z,109.40
2018-06-01T12:08:24.237Z,105.70
2018-06-01T12:09:23.601Z,95.10
2018-06-01T12:10:49.150Z,97.10
2018-06-01T12:11:48.057Z,108.70
2018-06-01T12:12:48.922Z,111.20
2018-06-01T12:13:48.749Z,119.80
2018-06-01T12:14:49.221Z,125.70
2018-06-01T12:15:48.377Z,122.50
2018-06-01T12:16:49.965Z,128.60
2018-06-01T12:17:48.095Z,117.00
2018-06-01T12:18:48.519Z,95.20
2018-06-01T12:19:48.576Z,83.40
2018-06-01T12:20:48.652Z,95.30
2018-06-01T12:22:12.849Z,102.90
2018-06-01T12:23:36.002Z,86.30
2018-06-01T12:24:36.927Z,81.60
2018-06-01T12:25:36.257Z,90.80
2018-06-01T12:26:36.449Z,83.70
2018-06-01T12:27:35.620Z,82.00
2018-06-01T12:28:41.423Z,91.60
2018-06-01T12:29:35.660Z,80.60
2018-06-01T12:30:36.464Z,64.00
2018-06-01T12:31:36.086Z,72.90
2018-06-01T12:32:36.188Z,69.70
2018-06-01T12:33:36.745Z,66.10
2018-06-01T12:34:36.480Z,69.40
2018-06-01T12:35:35.540Z,56.90
2018-06-01T12:36:35.669Z,56.20
2018-06-01T12:38:00.792Z,57.30
2018-06-01T12:38:59.280Z,63.10
2018-06-01T12:39:58.165Z,58.10
2018-06-01T12:40:58.348Z,52.00
2018-06-01T12:41:58.332Z,46.20
2018-06-01T12:42:58.250Z,54.90
2018-06-01T12:43:58.184Z,53.70
2018-06-01T12:44:59.227Z,51.70
2018-06-01T12:45:58.297Z,50.30
2018-06-01T12:46:59.322Z,54.20
2018-06-01T12:47:58.384Z,48.20
2018-06-01T12:48:58.427Z,43.00
2018-06-01T12:49:58.571Z,47.80
2018-06-01T12:51:01.402Z,53.20
2018-06-01T12:51:59.132Z,46.90
2018-06-01T12:53:42.047Z,40.70
2018-06-01T12:55:04.470Z,41.60
2018-06-01T12:56:05.995Z,41.50
2018-06-01T12:57:04.421Z,42.30
2018-06-01T12:58:05.042Z,41.70
2018-06-01T13:00:16.189Z,39.80
2018-06-01T13:02:01.810Z,41.00
2018-06-01T13:03:38.742Z,40.90
2018-06-01T13:04:08.227Z,38.60
2018-06-01T13:05:26.138Z,34.30
2018-06-01T13:06:25.992Z,34.30
2018-06-01T13:07:25.952Z,33.40
2018-06-01T13:08:48.929Z,32.00
2018-06-01T13:09:48.699Z,30.90
2018-06-01T13:11:33.248Z,32.70
2018-06-01T13:12:34.326Z,31.10
2018-06-01T13:13:34.291Z,30.00
2018-06-01T13:14:34.536Z,29.30
2018-06-01T13:15:34.834Z,27.80
2018-06-01T13:16:33.958Z,26.90
2018-06-01T13:17:33.753Z,25.00
2018-06-01T13:18:33.888Z,25.70
2018-06-01T13:19:55.814Z,26.90
2018-06-01T13:20:56.339Z,27.00
2018-06-01T13:21:56.346Z,25.20
2018-06-01T13:23:20.068Z,25.40
2018-06-01T13:24:21.175Z,24.60
2018-06-01T13:25:22.451Z,25.10
2018-06-01T13:26:20.702Z,25.70
2018-06-01T13:27:21.688Z,24.50
2018-06-01T13:28:20.402Z,24.80
2018-06-01T13:29:44.159Z,22.30
2018-06-01T13:30:45.130Z,21.90
2018-06-01T13:31:45.744Z,22.60
2018-06-01T13:32:44.731Z,20.90
2018-06-01T13:33:44.483Z,18.30
2018-06-01T13:34:45.219Z,15.80
2018-06-01T13:35:46.107Z,14.50
2018-06-01T13:36:45.304Z,13.40
2018-06-01T13:37:45.068Z,12.60
2018-06-01T13:38:45.506Z,11.10
2018-06-01T13:39:44.535Z,10.50
2018-06-01T13:40:46.180Z,16.30
2018-06-01T13:41:45.241Z,14.30
2018-06-01T13:42:48.169Z,12.40
2018-06-01T13:43:45.943Z,12.70
2018-06-01T13:44:45.090Z,12.90
2018-06-01T13:46:07.958Z,17.90
2018-06-01T13:47:06.907Z,8.20
2018-06-01T13:48:07.255Z,17.70
2018-06-01T13:49:06.881Z,18.30
2018-06-01T13:50:07.247Z,11.10
2018-06-01T13:51:31.952Z,14.70
2018-06-01T13:52:31.818Z,13.40
2018-06-01T13:53:32.162Z,44.20
2018-06-01T13:54:33.432Z,23.80
2018-06-01T13:55:35.014Z,8.40
2018-06-01T13:56:31.713Z,28.80
2018-06-01T13:57:31.518Z,21.10
2018-06-01T13:58:53.505Z,10.40
2018-06-01T13:59:54.583Z,9.50
2018-06-01T14:00:59.623Z,8.50
2018-06-01T14:01:53.527Z,11.60
2018-06-01T14:02:55.459Z,13.30
2018-06-01T14:03:54.800Z,7.50
2018-06-01T14:04:54.518Z,7.60
2018-06-01T14:06:17.278Z,7.60
2018-06-01T14:07:17.602Z,6.00
2018-06-01T14:08:18.256Z,5.50
2018-06-01T14:09:17.272Z,5.90
2018-06-01T14:10:17.565Z,5.80
2018-06-01T14:11:38.230Z,6.50
2018-06-01T14:13:00.835Z,6.70
2018-06-01T14:14:01.854Z,6.30
2018-06-01T14:15:01.630Z,6.00
2018-06-01T14:16:01.402Z,10.50
2018-06-01T14:17:01.578Z,6.60
2018-06-01T14:18:24.673Z,5.80
2018-06-01T14:19:24.530Z,6.10
2018-06-01T14:20:25.577Z,5.60
2018-06-01T14:21:24.627Z,6.60
2018-06-01T14:22:48.267Z,7.30
2018-06-01T14:23:49.058Z,9.30
2018-06-01T14:24:49.356Z,7.10
2018-06-01T14:25:50.541Z,8.40
2018-06-01T14:26:55.111Z,7.30
2018-06-01T14:27:48.917Z,5.90
2018-06-01T14:28:50.473Z,8.70
2018-06-01T14:29:49.079Z,7.60
2018-06-01T14:30:49.396Z,7.10
2018-06-01T14:32:11.484Z,6.40
2018-06-01T14:33:15.199Z,9.00
2018-06-01T14:34:14.166Z,7.40
2018-06-01T14:39:16.366Z,24.10
2018-06-01T14:40:13.647Z,7.40
2018-06-01T14:40:56.245Z,5.50
2018-06-01T14:41:54.322Z,6.30
2018-06-01T14:42:54.627Z,4.60
2018-06-01T14:43:53.559Z,7.10
2018-06-01T14:44:54.267Z,4.80
2018-06-01T14:45:54.486Z,5.20
2018-06-01T14:46:53.658Z,5.70
2018-06-01T14:47:53.738Z,5.10
2018-06-01T14:48:53.784Z,6.20
2018-06-01T14:49:54.616Z,7.80
2018-06-01T14:50:53.974Z,4.90
2018-06-01T14:52:16.312Z,5.50
2018-06-01T14:53:16.030Z,5.50
2018-06-01T14:54:15.717Z,7.10
2018-06-01T14:55:16.623Z,6.30
2018-06-01T14:56:16.941Z,6.50
2018-06-01T14:57:15.918Z,6.30